Terminal Aerodrome Forecast
Issued by NWS

Home | Current Version | Previous Version | Text Only | Print | Product List | Glossary On
Versions: 1 2 3 4 5 6 7 8 9 10 11 12 13 14 15 16 17 18 19 20
000
FTUS41 KBOX 011733
TAFACK
TAF
KACK 011733Z 0118/0218 21015KT 1/4SM -RA FG OVC002 WS020/24045KT
     FM012000 22023KT 1/2SM FG OVC003 WS020/23060KT
     FM020300 23021KT 2SM BR VCSH BKN005 WS020/24065KT
     FM020900 24023KT P6SM VCSH OVC008 WS020/24060KT
     FM021000 24023G31KT P6SM OVC008 WS020/25055KT=

USA.gov is the U.S. government's official web portal to all federal, state and local government web resources and services.